createdAt,value
2018-01-27T00:00:03.102Z,1.5
2018-01-27T00:15:02.432Z,1.4
2018-01-27T00:30:02.774Z,1.4
2018-01-27T00:45:03.025Z,1.3
2018-01-27T01:00:02.311Z,1.3
2018-01-27T01:15:02.558Z,1.2
2018-01-27T01:30:02.904Z,1.1
2018-01-27T01:45:03.224Z,1.1
2018-01-27T02:00:02.509Z,1.1
2018-01-27T02:15:02.720Z,0.9
2018-01-27T02:30:03.124Z,1
2018-01-27T02:45:02.437Z,1.1
2018-01-27T03:00:02.689Z,1.1
2018-01-27T03:15:02.931Z,1.1
2018-01-27T03:30:02.383Z,0.9
2018-01-27T03:45:02.621Z,0.9
2018-01-27T04:00:02.950Z,1
2018-01-27T04:15:03.211Z,1
2018-01-27T04:30:02.629Z,1.1
2018-01-27T04:45:02.883Z,1.2
2018-01-27T05:00:03.113Z,1.2
2018-01-27T05:15:02.410Z,1.2
2018-01-27T05:30:02.697Z,1.2
2018-01-27T05:45:02.907Z,1.2
2018-01-27T06:00:02.189Z,1.2
2018-01-27T06:15:02.407Z,1.2
2018-01-27T06:30:02.822Z,1.1
2018-01-27T06:45:03.076Z,1.1
2018-01-27T07:00:02.320Z,1.1
2018-01-27T07:15:02.564Z,1.2
2018-01-27T07:30:02.908Z,1.3
2018-01-27T07:45:03.134Z,1.4
2018-01-27T08:00:02.410Z,1.5
2018-01-27T08:15:02.632Z,1.6
2018-01-27T08:30:02.969Z,1.6
2018-01-27T08:45:02.206Z,1.7
2018-01-27T09:00:02.435Z,1.9
2018-01-27T09:15:02.685Z,2
2018-01-27T09:30:03.025Z,2.1
2018-01-27T09:45:02.300Z,2.1
2018-01-27T10:00:02.583Z,2.1
2018-01-27T10:15:02.837Z,2.1
2018-01-27T10:30:03.128Z,2.2
2018-01-27T10:45:02.385Z,2.4
2018-01-27T11:00:02.657Z,2.7
2018-01-27T11:15:02.909Z,2.7
2018-01-27T11:30:02.201Z,3
2018-01-27T11:45:02.461Z,2.9
2018-01-27T12:00:02.761Z,3
2018-01-27T12:15:03.014Z,3.1
2018-01-27T12:30:02.392Z,3.4
2018-01-27T12:45:02.601Z,3.3
2018-01-27T13:00:02.897Z,3.2
2018-01-27T13:15:03.154Z,3.1
2018-01-27T13:30:02.508Z,3.2
2018-01-27T13:45:02.761Z,3.3
2018-01-27T14:00:03.021Z,3.5
2018-01-27T14:15:02.276Z,3.5
2018-01-27T14:30:02.621Z,3.4
2018-01-27T14:45:02.897Z,3.3
2018-01-27T15:00:03.152Z,3.3
2018-01-27T15:15:02.446Z,3.4
2018-01-27T15:30:02.809Z,3.4
2018-01-27T15:45:03.027Z,3.1
2018-01-27T16:00:02.292Z,3
2018-01-27T16:15:02.573Z,2.9
2018-01-27T16:30:02.905Z,2.8
2018-01-27T16:45:03.149Z,2.6
2018-01-27T17:00:02.423Z,2.6
2018-01-27T17:15:02.670Z,2.5
2018-01-27T17:30:03.003Z,2.6
2018-01-27T17:45:02.309Z,2.6
2018-01-27T18:00:02.580Z,2.6
2018-01-27T18:15:02.848Z,2.6
2018-01-27T18:30:03.228Z,2.5
2018-01-27T18:45:02.493Z,2.6
2018-01-27T19:00:02.798Z,2.6
2018-01-27T19:15:03.115Z,2.6
2018-01-27T19:30:02.440Z,2.5
2018-01-27T19:45:02.729Z,2.5
2018-01-27T20:00:02.974Z,2.5
2018-01-27T20:15:02.185Z,2.4
2018-01-27T20:30:02.592Z,2.5
2018-01-27T20:45:02.895Z,2.4
2018-01-27T21:00:03.144Z,2.4
2018-01-27T21:15:02.450Z,2.4
2018-01-27T21:30:02.812Z,2.4
2018-01-27T21:45:03.114Z,2.4
2018-01-27T22:00:02.399Z,2.4
2018-01-27T22:15:02.603Z,2.4
2018-01-27T22:30:03.017Z,2.4
2018-01-27T22:45:02.319Z,2.4
2018-01-27T23:00:02.645Z,2.4
2018-01-27T23:15:03.234Z,2.4
2018-01-27T23:31:25.919Z,2.4
2018-01-27T23:45:03.461Z,2.4
